createdAt,value
2019-05-11T00:01:57.995Z,21.53
2019-05-11T00:04:27.580Z,24.07
2019-05-11T00:06:57.389Z,22.37
2019-05-11T00:09:27.054Z,22.37
2019-05-11T00:12:04.193Z,22.10
2019-05-11T00:14:38.641Z,26.43
2019-05-11T00:17:04.748Z,23.07
2019-05-11T00:19:34.297Z,22.60
2019-05-11T00:22:03.300Z,23.93
2019-05-11T00:24:32.853Z,24.67
2019-05-11T00:27:02.414Z,24.10
2019-05-11T00:29:31.451Z,24.70
2019-05-11T00:32:01.284Z,25.73
2019-05-11T00:34:30.846Z,24.00
2019-05-11T00:37:01.203Z,23.93
2019-05-11T00:39:40.005Z,25.40
2019-05-11T00:42:09.661Z,24.43
2019-05-11T00:44:39.241Z,24.30
2019-05-11T00:47:08.787Z,24.23
2019-05-11T00:49:38.046Z,24.40
2019-05-11T00:52:06.946Z,24.57
2019-05-11T00:54:36.500Z,25.40
2019-05-11T00:57:06.150Z,23.73
2019-05-11T00:59:35.974Z,25.43
2019-05-11T01:02:05.519Z,25.23
2019-05-11T01:04:34.497Z,24.67
2019-05-11T01:07:04.116Z,25.70
2019-05-11T01:09:33.648Z,27.97
2019-05-11T01:12:03.354Z,27.63
2019-05-11T01:14:33.174Z,27.63
2019-05-11T01:17:08.269Z,26.83
2019-05-11T01:19:37.529Z,25.23
2019-05-11T01:22:14.624Z,27.10
2019-05-11T01:24:43.704Z,26.80
2019-05-11T01:27:22.258Z,27.23
2019-05-11T01:29:57.342Z,28.27
2019-05-11T01:32:22.714Z,26.30
2019-05-11T01:34:58.342Z,27.67
2019-05-11T01:37:23.222Z,26.53
2019-05-11T01:39:53.053Z,26.37
2019-05-11T01:42:22.594Z,28.73
2019-05-11T01:44:52.249Z,27.47
2019-05-11T01:47:29.326Z,28.87
2019-05-11T01:49:59.699Z,29.23
2019-05-11T01:52:28.860Z,29.60
2019-05-11T01:54:57.789Z,28.57
2019-05-11T01:57:27.437Z,29.50
2019-05-11T01:59:56.317Z,30.30
2019-05-11T02:02:26.138Z,28.73
2019-05-11T02:05:13.527Z,29.73
2019-05-11T02:07:43.068Z,30.97
2019-05-11T02:10:20.049Z,31.07
2019-05-11T02:12:49.606Z,31.17
2019-05-11T02:15:19.157Z,29.37
2019-05-11T02:17:48.435Z,31.00
2019-05-11T02:20:17.408Z,30.17
2019-05-11T02:22:47.162Z,31.37
2019-05-11T02:25:17.679Z,32.87
2019-05-11T02:27:47.223Z,31.33
2019-05-11T02:30:16.966Z,30.27
2019-05-11T02:32:46.606Z,32.03
2019-05-11T02:35:16.722Z,31.97
2019-05-11T02:37:46.262Z,30.87
2019-05-11T02:40:16.500Z,29.53
2019-05-11T02:42:46.137Z,31.83
2019-05-11T02:45:17.668Z,30.27
2019-05-11T02:47:47.282Z,31.20
2019-05-11T02:50:16.835Z,29.00
2019-05-11T02:52:49.931Z,30.80
2019-05-11T02:55:19.542Z,31.23
2019-05-11T02:57:48.413Z,32.53
2019-05-11T03:00:27.534Z,32.17
2019-05-11T03:03:04.539Z,30.87
2019-05-11T03:05:34.214Z,33.23
2019-05-11T03:08:04.066Z,31.93
2019-05-11T03:10:33.642Z,32.37
2019-05-11T03:13:04.762Z,31.10
2019-05-11T03:15:33.635Z,30.90
2019-05-11T03:18:02.562Z,31.07
2019-05-11T03:20:32.206Z,30.67
2019-05-11T03:23:06.182Z,29.20
2019-05-11T03:25:36.695Z,29.47
2019-05-11T03:28:05.579Z,30.27
2019-05-11T03:30:35.407Z,26.93
2019-05-11T03:33:12.074Z,26.27
2019-05-11T03:35:44.467Z,25.23
2019-05-11T03:38:14.313Z,24.57
2019-05-11T03:40:44.294Z,24.93
2019-05-11T03:43:13.174Z,25.73
2019-05-11T03:45:45.499Z,23.73
2019-05-11T03:48:15.757Z,24.80
2019-05-11T03:50:44.629Z,26.57
2019-05-11T03:53:21.734Z,26.27
2019-05-11T03:55:50.893Z,24.80
2019-05-11T03:58:29.076Z,21.67
2019-05-11T04:01:05.446Z,24.17
2019-05-11T04:03:35.206Z,22.13
2019-05-11T04:06:04.071Z,20.90
2019-05-11T04:08:32.963Z,19.97
2019-05-11T04:11:02.202Z,21.00
2019-05-11T04:13:31.084Z,20.37
2019-05-11T04:16:00.737Z,20.07
2019-05-11T04:18:34.059Z,21.10
2019-05-11T04:21:02.942Z,20.97
2019-05-11T04:23:32.487Z,22.70
2019-05-11T04:26:03.792Z,21.77
2019-05-11T04:28:33.549Z,23.47
2019-05-11T04:31:03.432Z,21.80
2019-05-11T04:33:33.303Z,23.23
2019-05-11T04:36:02.401Z,22.77
2019-05-11T04:38:31.282Z,23.50
2019-05-11T04:41:00.939Z,21.83
2019-05-11T04:43:30.465Z,23.60
2019-05-11T04:46:02.318Z,23.53
2019-05-11T04:48:31.594Z,22.13
2019-05-11T04:51:01.410Z,22.77
2019-05-11T04:53:36.719Z,23.77
2019-05-11T04:56:06.543Z,23.47
2019-05-11T04:58:36.422Z,23.53
2019-05-11T05:01:21.227Z,25.07
2019-05-11T05:03:54.113Z,25.93
2019-05-11T05:06:22.771Z,26.60
2019-05-11T05:08:52.883Z,28.33
2019-05-11T05:11:21.767Z,28.33
2019-05-11T05:13:53.502Z,28.67
2019-05-11T05:16:21.534Z,27.27
2019-05-11T05:18:50.707Z,26.90
2019-05-11T05:21:20.237Z,24.53
2019-05-11T05:23:49.874Z,26.10
2019-05-11T05:26:19.685Z,25.50
2019-05-11T05:28:51.336Z,25.00
2019-05-11T05:31:21.177Z,26.50
2019-05-11T05:33:50.741Z,27.27
2019-05-11T05:36:20.262Z,27.60
2019-05-11T05:38:49.271Z,26.30
2019-05-11T05:41:18.166Z,26.37
2019-05-11T05:43:47.062Z,27.50
2019-05-11T05:46:16.709Z,26.83
2019-05-11T05:48:45.906Z,27.40
2019-05-11T05:51:23.026Z,26.43
2019-05-11T05:53:52.691Z,25.93
2019-05-11T05:56:29.618Z,27.53
2019-05-11T05:59:11.171Z,26.30
2019-05-11T06:01:40.722Z,27.43
2019-05-11T06:04:09.886Z,28.70
2019-05-11T06:06:39.529Z,27.47
2019-05-11T06:09:09.070Z,26.70
2019-05-11T06:11:38.274Z,28.63
2019-05-11T06:14:07.903Z,27.30
2019-05-11T06:16:46.397Z,27.60
2019-05-11T06:19:16.017Z,27.07
2019-05-11T06:21:45.858Z,26.33
2019-05-11T06:24:15.439Z,26.70
2019-05-11T06:26:44.416Z,25.93
2019-05-11T06:29:31.151Z,27.43
2019-05-11T06:32:01.255Z,26.30
2019-05-11T06:34:30.974Z,27.73
2019-05-11T06:37:00.807Z,24.87
2019-05-11T06:39:30.462Z,25.53
2019-05-11T06:41:59.349Z,25.63
2019-05-11T06:44:31.360Z,25.47
2019-05-11T06:47:01.025Z,25.33
2019-05-11T06:49:30.585Z,23.63
2019-05-11T06:52:00.534Z,23.17
2019-05-11T06:54:30.263Z,22.07
2019-05-11T06:56:59.153Z,21.77
2019-05-11T06:59:28.705Z,21.23
2019-05-11T07:01:57.697Z,19.50
2019-05-11T07:04:27.899Z,21.13
2019-05-11T07:06:57.757Z,19.97
2019-05-11T07:09:27.530Z,20.93
2019-05-11T07:11:57.132Z,21.13
2019-05-11T07:14:27.106Z,20.80
2019-05-11T07:17:04.554Z,21.43
2019-05-11T07:19:34.113Z,21.80
2019-05-11T07:22:12.978Z,22.77
2019-05-11T07:24:42.164Z,20.67
2019-05-11T07:27:11.477Z,21.40
2019-05-11T07:29:41.314Z,23.70
2019-05-11T07:32:23.095Z,23.47
2019-05-11T07:34:52.471Z,25.07
2019-05-11T07:37:24.523Z,24.20
2019-05-11T07:39:54.422Z,24.20
2019-05-11T07:42:24.114Z,24.97
2019-05-11T07:44:53.806Z,23.93
2019-05-11T07:47:23.462Z,25.33
2019-05-11T07:50:10.995Z,24.97
2019-05-11T07:52:39.985Z,27.23
2019-05-11T07:55:10.443Z,26.90
2019-05-11T07:57:49.347Z,28.30
2019-05-11T08:00:18.743Z,26.90
2019-05-11T08:02:48.342Z,30.40
2019-05-11T08:05:18.578Z,27.27
2019-05-11T08:07:48.279Z,26.30
2019-05-11T08:10:18.551Z,29.90
2019-05-11T08:12:48.702Z,29.57
2019-05-11T08:15:18.454Z,28.43
2019-05-11T08:17:48.992Z,26.93
2019-05-11T08:20:18.803Z,28.00
2019-05-11T08:22:49.350Z,27.50
2019-05-11T08:25:19.089Z,30.53
2019-05-11T08:27:52.000Z,28.10
2019-05-11T08:30:21.753Z,25.43
2019-05-11T08:32:50.650Z,25.80
2019-05-11T08:35:31.327Z,24.40
2019-05-11T08:38:01.144Z,26.00
2019-05-11T08:40:30.873Z,25.40
2019-05-11T08:43:01.973Z,27.47
2019-05-11T08:45:30.886Z,27.80
2019-05-11T08:48:00.641Z,27.03
2019-05-11T08:50:30.694Z,25.00
2019-05-11T08:53:00.624Z,24.20
2019-05-11T08:55:30.161Z,24.70
2019-05-11T08:57:59.161Z,22.23
2019-05-11T09:00:28.737Z,21.83
2019-05-11T09:02:58.355Z,21.97
2019-05-11T09:05:28.300Z,23.63
2019-05-11T09:07:57.915Z,23.37
2019-05-11T09:10:29.746Z,22.80
2019-05-11T09:12:59.232Z,22.40
2019-05-11T09:15:36.407Z,23.37
2019-05-11T09:17:59.141Z,21.97
2019-05-11T09:20:29.589Z,24.03
2019-05-11T09:23:08.310Z,24.37
2019-05-11T09:25:38.462Z,27.50
2019-05-11T09:28:08.953Z,26.23
2019-05-11T09:30:40.789Z,28.67
2019-05-11T09:33:10.494Z,28.37
2019-05-11T09:35:52.547Z,30.57
2019-05-11T09:38:18.608Z,30.40
2019-05-11T09:40:49.377Z,32.07
2019-05-11T09:43:19.037Z,31.27
2019-05-11T09:45:55.223Z,33.13
2019-05-11T09:48:24.133Z,33.40
2019-05-11T09:50:58.741Z,35.37
2019-05-11T09:53:28.430Z,38.43
2019-05-11T09:55:58.770Z,36.53
2019-05-11T09:58:28.447Z,37.83
2019-05-11T10:00:58.615Z,37.27
2019-05-11T10:03:28.310Z,35.43
2019-05-11T10:05:57.970Z,38.93
2019-05-11T10:08:28.706Z,37.63
2019-05-11T10:10:58.126Z,38.73
2019-05-11T10:13:27.952Z,39.17
2019-05-11T10:16:04.368Z,37.10
2019-05-11T10:18:28.326Z,34.97
2019-05-11T10:20:58.612Z,34.70
2019-05-11T10:23:29.135Z,37.80
2019-05-11T10:25:58.772Z,36.13
2019-05-11T10:28:28.749Z,37.23
2019-05-11T10:30:57.996Z,35.70
2019-05-11T10:33:28.246Z,34.10
2019-05-11T10:35:58.813Z,34.70
2019-05-11T10:38:28.709Z,33.83
2019-05-11T10:40:58.240Z,32.23
2019-05-11T10:43:28.825Z,30.63
2019-05-11T10:45:58.822Z,31.93
2019-05-11T10:48:45.441Z,32.80
2019-05-11T10:51:15.609Z,31.27
2019-05-11T10:53:44.525Z,32.07
2019-05-11T10:56:13.413Z,32.37
2019-05-11T10:58:43.993Z,31.60
2019-05-11T11:01:13.037Z,32.43
2019-05-11T11:03:42.694Z,33.67
2019-05-11T11:06:18.945Z,30.70
2019-05-11T11:08:48.663Z,32.77
2019-05-11T11:11:18.630Z,33.97
2019-05-11T11:13:49.303Z,31.97
2019-05-11T11:16:35.222Z,31.13
2019-05-11T11:18:49.446Z,31.53
2019-05-11T11:21:22.865Z,32.10
2019-05-11T11:23:50.294Z,31.53
2019-05-11T11:26:19.855Z,30.07
2019-05-11T11:28:49.505Z,29.37
2019-05-11T11:31:18.875Z,31.37
2019-05-11T11:33:49.171Z,33.40
2019-05-11T11:36:18.472Z,29.53
2019-05-11T11:38:48.045Z,27.20
2019-05-11T11:41:18.540Z,28.17
2019-05-11T11:43:48.495Z,29.47
2019-05-11T11:46:18.947Z,29.47
2019-05-11T11:48:48.944Z,25.60
2019-05-11T11:51:18.883Z,21.90
2019-05-11T11:53:48.620Z,20.53
2019-05-11T11:56:19.233Z,22.67
2019-05-11T11:58:48.994Z,24.00
2019-05-11T12:01:18.868Z,25.53
2019-05-11T12:03:48.869Z,25.03
2019-05-11T12:06:18.539Z,27.17
2019-05-11T12:08:49.628Z,24.23
2019-05-11T12:11:18.749Z,25.20
2019-05-11T12:13:48.530Z,24.70
2019-05-11T12:16:20.070Z,24.17
2019-05-11T12:18:49.650Z,26.83
2019-05-11T12:21:21.698Z,26.20
2019-05-11T12:23:51.254Z,25.87
2019-05-11T12:26:20.821Z,23.20
2019-05-11T12:28:50.412Z,25.03
2019-05-11T12:31:19.966Z,24.37
2019-05-11T12:33:49.544Z,24.17
2019-05-11T12:36:19.086Z,25.83
2019-05-11T12:38:48.957Z,23.33
2019-05-11T12:41:27.901Z,24.10
2019-05-11T12:44:28.496Z,25.30
2019-05-11T12:46:59.811Z,22.03
2019-05-11T12:49:29.034Z,20.20
2019-05-11T12:51:58.497Z,22.17
2019-05-11T12:54:29.396Z,21.47
2019-05-11T12:56:58.517Z,20.60
2019-05-11T12:59:31.162Z,17.17
2019-05-11T13:02:00.247Z,15.70
2019-05-11T13:04:29.170Z,15.53
2019-05-11T13:06:59.579Z,16.17
2019-05-11T13:09:29.191Z,17.33
2019-05-11T13:11:58.732Z,17.77
2019-05-11T13:14:28.555Z,17.40
2019-05-11T13:16:58.949Z,17.00
2019-05-11T13:19:28.334Z,16.40
2019-05-11T13:21:58.995Z,17.00
2019-05-11T13:24:28.499Z,16.20
2019-05-11T13:26:59.620Z,18.07
2019-05-11T13:29:28.846Z,14.40
2019-05-11T13:31:59.172Z,16.73
2019-05-11T13:34:31.314Z,16.63
2019-05-11T13:36:59.872Z,18.80
2019-05-11T13:39:29.442Z,20.53
2019-05-11T13:41:58.330Z,18.73
2019-05-11T13:44:28.148Z,16.53
2019-05-11T13:46:58.605Z,14.83
2019-05-11T13:49:32.327Z,14.83
2019-05-11T13:52:01.110Z,13.90
2019-05-11T13:54:37.601Z,13.87
2019-05-11T13:57:14.720Z,13.47
2019-05-11T13:59:44.608Z,12.77
2019-05-11T14:02:13.876Z,13.47
2019-05-11T14:04:43.566Z,13.87
2019-05-11T14:07:12.569Z,11.70
2019-05-11T14:09:42.148Z,11.50
2019-05-11T14:14:57.609Z,12.40
2019-05-11T14:17:31.218Z,13.67
2019-05-11T14:19:58.499Z,12.43
2019-05-11T14:22:28.521Z,11.67
2019-05-11T14:24:58.618Z,13.90
2019-05-11T14:27:28.427Z,12.63
2019-05-11T14:29:58.250Z,12.30
2019-05-11T14:32:28.462Z,17.17
2019-05-11T14:35:02.851Z,13.10
2019-05-11T14:37:31.917Z,11.77
2019-05-11T14:40:11.175Z,13.30
2019-05-11T14:42:40.992Z,12.93
2019-05-11T14:45:10.924Z,12.50
2019-05-11T14:47:42.567Z,11.77
2019-05-11T14:50:11.524Z,13.10
2019-05-11T14:52:41.131Z,12.10
2019-05-11T14:55:10.706Z,12.00
2019-05-11T14:57:39.932Z,11.70
2019-05-11T15:00:10.414Z,11.07
2019-05-11T15:02:48.556Z,11.13
2019-05-11T15:05:18.510Z,12.00
2019-05-11T15:07:49.183Z,12.67
2019-05-11T15:10:19.171Z,10.90
2019-05-11T15:12:51.073Z,11.13
2019-05-11T15:15:21.028Z,13.50
2019-05-11T15:17:52.849Z,10.10
2019-05-11T15:20:22.541Z,10.77
2019-05-11T15:22:51.433Z,10.60
2019-05-11T15:25:21.309Z,10.30
2019-05-11T15:27:50.872Z,11.37
2019-05-11T15:30:19.965Z,12.17
2019-05-11T15:32:49.617Z,11.70
2019-05-11T15:35:19.027Z,12.10
2019-05-11T15:37:48.934Z,12.50
2019-05-11T15:40:20.342Z,13.77
2019-05-11T15:42:49.905Z,11.53
2019-05-11T15:45:20.068Z,12.17
2019-05-11T15:47:49.220Z,12.10
2019-05-11T15:50:19.688Z,11.57
2019-05-11T15:52:49.618Z,12.07
2019-05-11T15:55:19.666Z,10.90
2019-05-11T15:57:54.069Z,10.50
2019-05-11T16:00:22.942Z,11.50
2019-05-11T16:03:24.425Z,10.63
2019-05-11T16:05:58.327Z,11.27
2019-05-11T16:08:28.382Z,10.87
2019-05-11T16:11:08.381Z,10.37
2019-05-11T16:13:37.999Z,9.60
2019-05-11T16:16:06.875Z,9.40
2019-05-11T16:18:37.220Z,10.00
2019-05-11T16:21:19.010Z,10.77
2019-05-11T16:23:48.129Z,10.20
2019-05-11T16:26:27.951Z,9.07
2019-05-11T16:28:58.157Z,9.03
2019-05-11T16:31:28.438Z,8.77
2019-05-11T16:33:58.958Z,9.33
2019-05-11T16:36:29.890Z,8.93
2019-05-11T16:38:58.780Z,10.83
2019-05-11T16:41:34.513Z,9.60
2019-05-11T16:44:07.683Z,9.87
2019-05-11T16:46:38.719Z,9.00
2019-05-11T16:49:10.691Z,10.03
2019-05-11T16:51:38.894Z,9.93
2019-05-11T16:54:07.893Z,10.10
2019-05-11T16:56:38.327Z,9.80
2019-05-11T16:59:08.175Z,10.00
2019-05-11T17:01:44.787Z,10.03
2019-05-11T17:04:13.810Z,8.47
2019-05-11T17:06:42.702Z,9.53
2019-05-11T17:09:11.585Z,7.33
2019-05-11T17:11:40.846Z,6.90
2019-05-11T17:14:09.737Z,6.17
2019-05-11T17:16:39.323Z,5.10
2019-05-11T17:19:08.954Z,5.70
2019-05-11T17:21:38.696Z,4.80
2019-05-11T17:24:07.608Z,4.20
2019-05-11T17:26:38.511Z,4.13
2019-05-11T17:29:10.066Z,4.20
2019-05-11T17:31:39.690Z,5.90
2019-05-11T17:34:09.366Z,4.13
2019-05-11T17:36:38.917Z,4.40
2019-05-11T17:39:10.766Z,4.57
2019-05-11T17:41:47.973Z,4.43
2019-05-11T17:44:18.543Z,4.47
2019-05-11T17:46:48.210Z,3.70
2019-05-11T17:49:18.611Z,3.73
2019-05-11T17:51:50.398Z,3.70
2019-05-11T17:54:19.307Z,3.67
2019-05-11T17:56:48.551Z,3.80
2019-05-11T17:59:19.528Z,3.53
2019-05-11T18:05:02.171Z,3.10
2019-05-11T18:07:31.417Z,3.70
2019-05-11T18:10:01.971Z,3.30
2019-05-11T18:12:30.867Z,3.97
2019-05-11T18:15:00.660Z,4.00
2019-05-11T18:17:30.717Z,3.80
2019-05-11T18:20:13.858Z,3.53
2019-05-11T18:22:43.785Z,3.33
2019-05-11T18:25:14.150Z,3.90
2019-05-11T18:27:43.442Z,4.37
2019-05-11T18:30:12.413Z,3.90
2019-05-11T18:32:41.349Z,4.03
2019-05-11T18:35:11.006Z,3.67
2019-05-11T18:37:40.749Z,4.50
2019-05-11T18:40:11.809Z,3.60
2019-05-11T18:42:41.671Z,6.10
2019-05-11T18:45:18.950Z,5.60
2019-05-11T18:47:48.809Z,4.37
2019-05-11T18:50:29.816Z,3.93
2019-05-11T18:52:50.065Z,4.23
2019-05-11T18:55:19.359Z,3.60
2019-05-11T18:57:48.994Z,2.73
2019-05-11T19:00:18.642Z,3.93
2019-05-11T19:02:49.631Z,4.67
2019-05-11T19:05:18.882Z,4.30
2019-05-11T19:07:48.828Z,5.67
2019-05-11T19:10:18.550Z,5.80
2019-05-11T19:12:48.973Z,4.23
2019-05-11T19:15:19.388Z,3.60
2019-05-11T19:17:49.066Z,4.73
2019-05-11T19:20:28.350Z,4.40
2019-05-11T19:22:58.996Z,4.40
2019-05-11T19:25:37.535Z,3.83
2019-05-11T19:28:08.485Z,4.50
2019-05-11T19:30:43.601Z,3.90
2019-05-11T19:33:13.369Z,3.90
2019-05-11T19:35:48.062Z,3.73
2019-05-11T19:40:55.942Z,3.67
2019-05-11T19:43:57.838Z,3.53
2019-05-11T19:46:27.993Z,3.73
2019-05-11T19:49:00.264Z,3.47
2019-05-11T19:51:30.154Z,3.63
2019-05-11T19:54:08.452Z,3.60
2019-05-11T19:56:38.531Z,3.60
2019-05-11T19:59:08.565Z,3.30
2019-05-11T20:01:38.273Z,4.17
2019-05-11T20:04:08.274Z,3.90
2019-05-11T20:06:38.570Z,3.30
2019-05-11T20:09:11.954Z,3.23
2019-05-11T20:11:41.503Z,3.50
2019-05-11T20:14:10.413Z,3.10
2019-05-11T20:16:40.106Z,3.80
2019-05-11T20:19:09.984Z,4.00
2019-05-11T20:21:39.530Z,3.90
2019-05-11T20:24:09.381Z,3.40
2019-05-11T20:26:57.193Z,3.47
2019-05-11T20:29:27.767Z,3.40
2019-05-11T20:31:57.834Z,3.63
2019-05-11T20:34:28.879Z,4.10
2019-05-11T20:39:37.916Z,3.20
2019-05-11T20:42:08.688Z,3.80
2019-05-11T20:44:40.103Z,3.80
2019-05-11T20:47:09.286Z,3.93
2019-05-11T20:49:40.814Z,4.00
2019-05-11T20:52:14.291Z,4.97
2019-05-11T20:54:43.864Z,4.03
2019-05-11T20:57:22.198Z,3.60
2019-05-11T20:59:51.770Z,3.40
2019-05-11T21:02:30.115Z,3.57
2019-05-11T21:04:59.890Z,3.03
2019-05-11T21:07:29.983Z,3.27
2019-05-11T21:10:03.303Z,3.10
2019-05-11T21:12:32.990Z,3.20
2019-05-11T21:15:02.259Z,2.80
2019-05-11T21:17:32.147Z,4.33
2019-05-11T21:20:01.733Z,3.23
2019-05-11T21:22:31.286Z,3.73
2019-05-11T21:25:01.598Z,3.73
2019-05-11T21:27:31.710Z,3.87
2019-05-11T21:30:00.936Z,3.63
2019-05-11T21:32:29.986Z,4.53
2019-05-11T21:35:01.073Z,4.10
2019-05-11T21:37:30.083Z,4.30
2019-05-11T21:40:04.483Z,3.33
2019-05-11T21:42:33.386Z,3.80
2019-05-11T21:45:03.157Z,4.13
2019-05-11T21:47:32.444Z,3.73
2019-05-11T21:50:02.094Z,4.10
2019-05-11T21:52:31.118Z,4.13
2019-05-11T21:55:00.402Z,3.07
2019-05-11T21:57:29.589Z,3.07
2019-05-11T22:02:33.885Z,2.87
2019-05-11T22:05:03.931Z,3.40
2019-05-11T22:07:33.483Z,3.00
2019-05-11T22:10:03.883Z,3.20
2019-05-11T22:12:39.406Z,3.23
2019-05-11T22:15:09.360Z,3.80
2019-05-11T22:17:39.658Z,4.97
2019-05-11T22:20:10.097Z,5.43
2019-05-11T22:22:40.044Z,3.87
2019-05-11T22:25:11.209Z,3.97
2019-05-11T22:27:40.125Z,4.43
2019-05-11T22:30:12.622Z,3.33
2019-05-11T22:32:42.175Z,2.80
2019-05-11T22:35:11.773Z,3.37
2019-05-11T22:37:40.766Z,3.30
2019-05-11T22:40:18.076Z,4.63
2019-05-11T22:42:47.092Z,4.67
2019-05-11T22:45:18.447Z,3.77
2019-05-11T22:47:48.146Z,3.00
2019-05-11T22:50:18.685Z,3.17
2019-05-11T22:52:49.221Z,2.70
2019-05-11T22:57:50.256Z,3.33
2019-05-11T23:00:32.173Z,2.97
2019-05-11T23:03:01.530Z,3.07
2019-05-11T23:05:31.618Z,3.10
2019-05-11T23:08:18.281Z,3.20
2019-05-11T23:10:47.906Z,3.23
2019-05-11T23:13:18.700Z,3.43
2019-05-11T23:15:48.049Z,3.80
2019-05-11T23:18:18.030Z,3.17
2019-05-11T23:20:47.945Z,3.37
2019-05-11T23:23:17.966Z,3.33
2019-05-11T23:25:46.885Z,3.80
2019-05-11T23:28:18.304Z,2.93
2019-05-11T23:30:47.772Z,2.87
2019-05-11T23:33:18.383Z,3.43
2019-05-11T23:35:49.154Z,3.40
2019-05-11T23:38:18.818Z,2.40
2019-05-11T23:40:54.579Z,2.90
2019-05-11T23:43:30.060Z,3.13
2019-05-11T23:45:59.742Z,2.87
2019-05-11T23:48:29.283Z,2.93
2019-05-11T23:51:11.170Z,3.10
2019-05-11T23:53:40.812Z,3.60
2019-05-11T23:56:09.736Z,3.67
2019-05-11T23:58:39.378Z,3.03
